createdAt,value
2023-02-20T00:00:43.047Z,5.99
2023-02-20T00:01:53.388Z,5.96
2023-02-20T00:02:55.301Z,5.89
2023-02-20T00:03:57.270Z,5.89
2023-02-20T00:04:59.199Z,5.92
2023-02-20T00:06:01.136Z,5.95
2023-02-20T00:07:03.277Z,5.77
2023-02-20T00:08:05.463Z,5.92
2023-02-20T00:09:07.316Z,5.95
2023-02-20T00:10:10.364Z,6.01
2023-02-20T00:11:12.742Z,5.80
2023-02-20T00:12:14.942Z,5.75
2023-02-20T00:13:16.778Z,5.72
2023-02-20T00:14:18.597Z,5.85
2023-02-20T00:15:21.827Z,5.92
2023-02-20T00:16:23.688Z,5.79
2023-02-20T00:17:25.865Z,5.73
2023-02-20T00:18:27.721Z,5.70
2023-02-20T00:19:29.580Z,5.76
2023-02-20T00:20:33.356Z,5.84
2023-02-20T00:21:35.310Z,5.84
2023-02-20T00:22:37.466Z,5.69
2023-02-20T00:23:39.509Z,5.69
2023-02-20T00:24:42.166Z,5.73
2023-02-20T00:25:44.042Z,5.77
2023-02-20T00:26:51.367Z,5.72
2023-02-20T00:27:53.751Z,5.76
2023-02-20T00:28:55.637Z,5.66
2023-02-20T00:29:57.546Z,5.57
2023-02-20T00:30:59.774Z,5.48
2023-02-20T00:32:02.970Z,5.53
2023-02-20T00:33:07.183Z,5.54
2023-02-20T00:34:09.205Z,5.46
2023-02-20T00:35:12.422Z,5.46
2023-02-20T00:36:20.046Z,5.49
2023-02-20T00:37:22.105Z,5.42
2023-02-20T00:38:24.256Z,5.50
2023-02-20T00:39:26.124Z,5.53
2023-02-20T00:40:28.071Z,5.62
2023-02-20T00:41:29.998Z,5.47
2023-02-20T00:42:31.882Z,5.51
2023-02-20T00:43:36.330Z,5.72
2023-02-20T00:44:38.207Z,5.73
2023-02-20T00:45:41.599Z,5.54
2023-02-20T00:46:43.595Z,5.36
2023-02-20T00:47:47.804Z,5.36
2023-02-20T00:48:50.965Z,5.50
2023-02-20T00:50:10.337Z,5.41
2023-02-20T00:51:12.196Z,5.31
2023-02-20T00:52:15.027Z,5.28
2023-02-20T00:53:16.985Z,5.32
2023-02-20T00:54:19.413Z,5.28
2023-02-20T00:55:21.338Z,5.25
2023-02-20T00:56:23.163Z,5.32
2023-02-20T00:57:25.112Z,5.16
2023-02-20T00:58:26.964Z,5.11
2023-02-20T00:59:29.151Z,5.17
2023-02-20T01:00:31.890Z,5.10
2023-02-20T01:01:34.080Z,5.17
2023-02-20T01:02:36.043Z,5.19
2023-02-20T01:03:39.140Z,5.04
2023-02-20T01:04:41.734Z,5.09
2023-02-20T01:05:44.873Z,4.94
2023-02-20T01:06:46.859Z,4.87
2023-02-20T01:07:48.852Z,4.98
2023-02-20T01:08:51.536Z,4.95
2023-02-20T01:09:55.891Z,4.99
2023-02-20T01:10:57.820Z,5.01
2023-02-20T01:11:59.776Z,4.93
2023-02-20T01:13:01.642Z,5.03
2023-02-20T01:14:04.151Z,5.00
2023-02-20T01:15:09.496Z,5.00
2023-02-20T01:16:11.761Z,5.01
2023-02-20T01:17:14.895Z,4.87
2023-02-20T01:18:16.915Z,4.80
2023-02-20T01:19:20.297Z,4.81
2023-02-20T01:20:22.521Z,4.85
2023-02-20T01:21:24.493Z,4.90
2023-02-20T01:22:26.371Z,4.80
2023-02-20T01:23:28.314Z,4.78
2023-02-20T01:24:30.185Z,4.89
2023-02-20T01:25:32.705Z,4.92
2023-02-20T01:26:36.393Z,4.77
2023-02-20T01:27:38.418Z,4.53
2023-02-20T01:28:44.024Z,4.58
2023-02-20T01:29:45.911Z,4.61
2023-02-20T01:30:49.118Z,4.68
2023-02-20T01:31:52.272Z,4.62
2023-02-20T01:32:54.315Z,4.68
2023-02-20T01:33:56.266Z,4.67
2023-02-20T01:34:58.334Z,4.57
2023-02-20T01:36:00.507Z,4.53
2023-02-20T01:37:02.485Z,4.72
2023-02-20T01:38:06.612Z,4.74
2023-02-20T01:39:08.527Z,4.55
2023-02-20T01:40:23.432Z,4.59
2023-02-20T01:41:25.924Z,4.60
2023-02-20T01:42:32.114Z,4.63
2023-02-20T01:43:33.980Z,4.58
2023-02-20T01:44:37.431Z,4.40
2023-02-20T01:45:39.949Z,4.44
2023-02-20T01:46:46.697Z,4.48
2023-02-20T01:47:55.398Z,4.37
2023-02-20T01:49:05.878Z,4.32
2023-02-20T01:50:08.610Z,4.49
2023-02-20T01:51:11.351Z,4.41
2023-02-20T01:52:21.943Z,4.28
2023-02-20T01:53:26.301Z,4.25
2023-02-20T01:54:29.959Z,4.26
2023-02-20T01:55:42.733Z,4.33
2023-02-20T01:56:47.017Z,4.19
2023-02-20T01:57:54.327Z,4.05
2023-02-20T01:58:56.466Z,4.02
2023-02-20T02:00:07.275Z,3.97
2023-02-20T02:01:16.450Z,3.60
2023-02-20T02:02:23.365Z,3.55
2023-02-20T02:03:29.251Z,3.71
2023-02-20T02:04:31.878Z,3.62
2023-02-20T02:05:35.439Z,3.71
2023-02-20T02:06:42.947Z,3.65
2023-02-20T02:07:45.664Z,3.54
2023-02-20T02:08:47.679Z,3.49
2023-02-20T02:09:54.747Z,3.54
2023-02-20T02:11:06.193Z,3.42
2023-02-20T02:12:09.137Z,3.37
2023-02-20T02:13:12.058Z,3.54
2023-02-20T02:14:14.853Z,3.46
2023-02-20T02:15:18.853Z,3.40
2023-02-20T02:16:32.837Z,3.29
2023-02-20T02:17:59.427Z,3.37
2023-02-20T02:19:10.065Z,3.22
2023-02-20T02:20:15.300Z,3.41
2023-02-20T02:21:46.139Z,3.15
2023-02-20T02:23:06.638Z,3.22
2023-02-20T02:24:30.178Z,3.24
2023-02-20T02:25:58.129Z,3.16
2023-02-20T02:27:28.259Z,3.01
2023-02-20T02:28:42.171Z,3.09
2023-02-20T02:30:02.266Z,2.87
2023-02-20T02:31:10.291Z,2.81
2023-02-20T02:32:18.081Z,2.77
2023-02-20T02:33:40.042Z,2.82
2023-02-20T02:35:08.056Z,2.79
2023-02-20T02:36:31.883Z,2.71
2023-02-20T02:37:33.759Z,2.67
2023-02-20T02:38:54.942Z,2.67
2023-02-20T02:40:16.012Z,2.66
2023-02-20T02:41:43.352Z,2.57
2023-02-20T02:43:09.928Z,2.62
2023-02-20T02:44:14.495Z,2.70
2023-02-20T02:45:56.205Z,2.78
2023-02-20T02:47:11.940Z,2.76
2023-02-20T02:48:35.142Z,2.85
2023-02-20T02:49:55.124Z,2.76
2023-02-20T02:51:22.768Z,2.89
2023-02-20T02:52:48.651Z,2.94
2023-02-20T02:54:15.379Z,2.98
2023-02-20T02:55:29.186Z,2.66
2023-02-20T02:56:46.289Z,2.93
2023-02-20T02:57:48.572Z,2.85
2023-02-20T02:58:54.647Z,2.91
2023-02-20T03:00:05.082Z,3.05
2023-02-20T03:01:07.873Z,3.01
2023-02-20T03:02:14.543Z,3.06
2023-02-20T03:03:28.295Z,2.95
2023-02-20T03:04:32.621Z,2.84
2023-02-20T03:05:46.405Z,2.73
2023-02-20T03:06:50.710Z,2.74
2023-02-20T03:07:57.607Z,2.72
2023-02-20T03:09:05.555Z,2.68
2023-02-20T03:10:11.731Z,2.65
2023-02-20T03:11:18.076Z,2.63
2023-02-20T03:12:21.826Z,2.62
2023-02-20T03:13:45.349Z,2.68
2023-02-20T03:15:22.290Z,2.40
2023-02-20T03:16:35.160Z,2.41
2023-02-20T03:17:44.661Z,2.29
2023-02-20T03:18:48.648Z,2.20
2023-02-20T03:19:53.616Z,1.89
2023-02-20T03:21:01.099Z,2.11
2023-02-20T03:22:12.974Z,2.22
2023-02-20T03:23:23.264Z,2.22
2023-02-20T03:24:28.755Z,2.35
2023-02-20T03:25:46.016Z,2.34
2023-02-20T03:26:49.346Z,2.16
2023-02-20T03:27:57.161Z,2.09
2023-02-20T03:29:04.559Z,2.40
2023-02-20T03:30:22.251Z,2.23
2023-02-20T03:31:48.604Z,2.21
2023-02-20T03:33:14.768Z,2.10
2023-02-20T03:34:46.073Z,2.10
2023-02-20T03:36:07.975Z,2.07
2023-02-20T03:37:35.065Z,2.09
2023-02-20T03:39:00.008Z,2.05
2023-02-20T03:40:26.041Z,2.30
2023-02-20T03:41:48.240Z,2.33
2023-02-20T03:43:14.781Z,2.24
2023-02-20T03:44:18.628Z,2.21
2023-02-20T03:45:24.765Z,2.24
2023-02-20T03:46:31.549Z,2.44
2023-02-20T03:47:36.516Z,2.37
2023-02-20T03:48:55.907Z,2.38
2023-02-20T03:50:00.637Z,2.36
2023-02-20T03:51:13.086Z,2.36
2023-02-20T03:52:18.331Z,2.49
2023-02-20T03:53:20.690Z,2.40
2023-02-20T03:54:23.073Z,2.42
2023-02-20T03:55:25.518Z,2.48
2023-02-20T03:56:41.807Z,2.57
2023-02-20T03:57:50.052Z,2.73
2023-02-20T03:59:02.939Z,2.78
2023-02-20T04:00:14.302Z,2.85
2023-02-20T04:01:18.846Z,2.97
2023-02-20T04:02:34.206Z,2.86
2023-02-20T04:03:45.272Z,2.93
2023-02-20T04:04:51.924Z,2.98
2023-02-20T04:05:57.349Z,2.88
2023-02-20T04:07:06.464Z,2.81
2023-02-20T04:08:14.533Z,2.98
2023-02-20T04:09:22.938Z,2.81
2023-02-20T04:10:36.711Z,2.74
2023-02-20T04:11:43.455Z,2.73
2023-02-20T04:12:48.168Z,2.78
2023-02-20T04:13:53.286Z,2.75
2023-02-20T04:14:58.331Z,2.57
2023-02-20T04:16:02.372Z,2.55
2023-02-20T04:17:11.921Z,2.48
2023-02-20T04:18:18.392Z,2.65
2023-02-20T04:19:20.903Z,2.61
2023-02-20T04:20:23.504Z,2.76
2023-02-20T04:21:39.150Z,2.69
2023-02-20T04:22:46.719Z,2.78
2023-02-20T04:23:58.920Z,2.82
2023-02-20T04:25:07.249Z,2.84
2023-02-20T04:26:20.182Z,2.89
2023-02-20T04:27:22.720Z,2.92
2023-02-20T04:28:26.558Z,2.88
2023-02-20T04:29:29.574Z,2.89
2023-02-20T04:30:33.147Z,2.85
2023-02-20T04:31:35.467Z,2.91
2023-02-20T04:32:38.121Z,3.00
2023-02-20T04:33:40.082Z,2.94
2023-02-20T04:34:43.051Z,2.98
2023-02-20T04:35:45.572Z,2.98
2023-02-20T04:36:47.955Z,3.03
2023-02-20T04:37:49.869Z,2.99
2023-02-20T04:38:52.330Z,3.04
2023-02-20T04:39:54.669Z,3.00
2023-02-20T04:40:57.137Z,3.11
2023-02-20T04:41:59.259Z,3.07
2023-02-20T04:43:01.987Z,3.16
2023-02-20T04:44:23.344Z,3.24
2023-02-20T04:45:25.678Z,3.21
2023-02-20T04:46:28.332Z,3.28
2023-02-20T04:47:30.315Z,3.16
2023-02-20T04:48:32.180Z,3.20
2023-02-20T04:49:34.639Z,3.11
2023-02-20T04:50:37.151Z,3.01
2023-02-20T04:51:39.653Z,3.19
2023-02-20T04:52:41.811Z,3.09
2023-02-20T04:53:43.716Z,3.04
2023-02-20T04:54:45.661Z,3.15
2023-02-20T04:55:48.070Z,3.29
2023-02-20T04:56:50.700Z,3.06
2023-02-20T04:57:58.182Z,3.10
2023-02-20T04:59:00.700Z,3.23
2023-02-20T05:00:04.242Z,3.37
2023-02-20T05:01:06.172Z,3.36
2023-02-20T05:02:10.171Z,3.42
2023-02-20T05:03:12.251Z,3.53
2023-02-20T05:04:19.213Z,3.52
2023-02-20T05:05:26.996Z,3.64
2023-02-20T05:06:28.850Z,3.52
2023-02-20T05:07:30.973Z,3.56
2023-02-20T05:08:33.060Z,3.59
2023-02-20T05:09:34.964Z,3.64
2023-02-20T05:10:37.346Z,3.64
2023-02-20T05:11:39.250Z,3.62
2023-02-20T05:12:41.490Z,3.67
2023-02-20T05:13:43.510Z,3.65
2023-02-20T05:14:45.394Z,3.64
2023-02-20T05:15:47.285Z,3.84
2023-02-20T05:16:51.283Z,3.84
2023-02-20T05:17:53.427Z,3.85
2023-02-20T05:18:55.401Z,3.92
2023-02-20T05:19:57.268Z,4.02
2023-02-20T05:21:17.808Z,4.11
2023-02-20T05:22:19.684Z,4.00
2023-02-20T05:23:21.834Z,3.93
2023-02-20T05:24:24.275Z,3.99
2023-02-20T05:25:26.202Z,4.12
2023-02-20T05:26:28.184Z,4.08
2023-02-20T05:27:30.173Z,4.16
2023-02-20T05:28:32.381Z,4.19
2023-02-20T05:29:34.255Z,4.20
2023-02-20T05:30:36.184Z,4.11
2023-02-20T05:31:39.801Z,4.17
2023-02-20T05:32:41.697Z,4.21
2023-02-20T05:33:44.138Z,4.28
2023-02-20T05:34:46.423Z,4.28
2023-02-20T05:35:48.283Z,4.26
2023-02-20T05:36:50.161Z,4.03
2023-02-20T05:37:52.052Z,4.04
2023-02-20T05:38:54.224Z,4.16
2023-02-20T05:39:56.173Z,4.24
2023-02-20T05:40:58.714Z,4.29
2023-02-20T05:42:00.643Z,4.14
2023-02-20T05:43:02.526Z,4.05
2023-02-20T05:44:05.384Z,3.99
2023-02-20T05:45:09.104Z,4.16
2023-02-20T05:46:11.284Z,4.20
2023-02-20T05:47:13.378Z,4.28
2023-02-20T05:48:15.829Z,4.23
2023-02-20T05:49:18.182Z,4.15
2023-02-20T05:50:20.186Z,4.26
2023-02-20T05:51:23.663Z,4.41
2023-02-20T05:52:25.566Z,4.32
2023-02-20T05:53:28.849Z,4.31
2023-02-20T05:54:31.001Z,4.30
2023-02-20T05:55:32.944Z,4.38
2023-02-20T05:56:35.238Z,4.32
2023-02-20T05:57:37.100Z,4.26
2023-02-20T05:58:38.961Z,4.26
2023-02-20T05:59:41.214Z,4.25
2023-02-20T06:00:43.665Z,4.24
2023-02-20T06:01:46.030Z,4.25
2023-02-20T06:02:47.903Z,4.22
2023-02-20T06:03:50.051Z,4.26
2023-02-20T06:04:52.093Z,4.33
2023-02-20T06:05:56.404Z,4.37
2023-02-20T06:06:58.718Z,4.42
2023-02-20T06:08:00.615Z,4.52
2023-02-20T06:09:03.305Z,4.58
2023-02-20T06:10:05.544Z,4.57
2023-02-20T06:11:08.067Z,4.48
2023-02-20T06:12:11.489Z,4.57
2023-02-20T06:13:13.415Z,4.47
2023-02-20T06:14:16.154Z,4.36
2023-02-20T06:15:18.114Z,4.43
2023-02-20T06:16:28.690Z,4.41
2023-02-20T06:17:33.054Z,4.50
2023-02-20T06:18:38.179Z,4.50
2023-02-20T06:19:40.118Z,4.42
2023-02-20T06:20:42.078Z,4.48
2023-02-20T06:21:47.351Z,4.37
2023-02-20T06:22:50.324Z,4.50
2023-02-20T06:23:53.874Z,4.57
2023-02-20T06:24:55.755Z,4.48
2023-02-20T06:25:57.642Z,4.55
2023-02-20T06:26:59.578Z,4.60
2023-02-20T06:28:01.778Z,4.48
2023-02-20T06:29:04.797Z,4.59
2023-02-20T06:30:07.559Z,4.65
2023-02-20T06:31:11.347Z,4.67
2023-02-20T06:32:13.379Z,4.71
2023-02-20T06:33:15.588Z,4.75
2023-02-20T06:34:18.165Z,4.77
2023-02-20T06:35:20.149Z,4.86
2023-02-20T06:36:28.077Z,4.86
2023-02-20T06:37:29.977Z,4.91
2023-02-20T06:38:32.314Z,4.82
2023-02-20T06:39:34.198Z,4.72
2023-02-20T06:40:36.087Z,4.85
2023-02-20T06:41:38.043Z,4.73
2023-02-20T06:42:39.967Z,4.91
2023-02-20T06:43:42.100Z,4.86
2023-02-20T06:44:43.957Z,4.83
2023-02-20T06:45:46.973Z,4.83
2023-02-20T06:46:49.505Z,4.90
2023-02-20T06:47:51.379Z,5.28
2023-02-20T06:48:58.295Z,5.24
2023-02-20T06:50:00.164Z,5.15
2023-02-20T06:51:02.055Z,5.01
2023-02-20T06:52:05.155Z,5.77
2023-02-20T06:53:07.796Z,5.62
2023-02-20T06:54:12.728Z,7.05
2023-02-20T06:55:14.852Z,6.62
2023-02-20T06:56:20.274Z,6.17
2023-02-20T06:57:22.186Z,5.86
2023-02-20T06:58:24.091Z,5.54
2023-02-20T06:59:26.810Z,5.57
2023-02-20T07:00:29.233Z,5.40
2023-02-20T07:01:39.531Z,5.40
2023-02-20T07:02:41.553Z,5.33
2023-02-20T07:03:45.103Z,5.35
2023-02-20T07:04:50.624Z,5.46
2023-02-20T07:05:52.505Z,5.26
2023-02-20T07:06:54.656Z,5.14
2023-02-20T07:07:56.565Z,5.13
2023-02-20T07:08:58.395Z,5.23
2023-02-20T07:10:01.622Z,5.20
2023-02-20T07:11:04.739Z,5.32
2023-02-20T07:12:07.099Z,5.26
2023-02-20T07:13:09.061Z,5.29
2023-02-20T07:14:10.981Z,5.40
2023-02-20T07:15:13.463Z,5.42
2023-02-20T07:16:15.750Z,5.36
2023-02-20T07:17:17.779Z,5.38
2023-02-20T07:18:21.712Z,5.49
2023-02-20T07:19:23.634Z,5.45
2023-02-20T07:20:25.850Z,5.55
2023-02-20T07:21:27.931Z,5.70
2023-02-20T07:22:29.914Z,5.77
2023-02-20T07:23:32.059Z,5.59
2023-02-20T07:24:36.631Z,5.44
2023-02-20T07:25:38.955Z,6.69
2023-02-20T07:26:40.882Z,6.64
2023-02-20T07:27:42.747Z,6.31
2023-02-20T07:28:44.614Z,5.99
2023-02-20T07:29:47.960Z,5.80
2023-02-20T07:30:50.269Z,6.06
2023-02-20T07:31:52.292Z,6.01
2023-02-20T07:32:54.168Z,5.94
2023-02-20T07:33:56.130Z,6.03
2023-02-20T07:35:04.679Z,5.97
2023-02-20T07:36:09.854Z,5.96
2023-02-20T07:37:11.748Z,5.75
2023-02-20T07:38:13.778Z,5.96
2023-02-20T07:39:16.474Z,7.10
2023-02-20T07:40:18.579Z,6.81
2023-02-20T07:41:20.806Z,6.36
2023-02-20T07:42:22.690Z,6.34
2023-02-20T07:43:25.146Z,6.11
2023-02-20T07:44:27.085Z,6.07
2023-02-20T07:45:29.485Z,6.08
2023-02-20T07:46:34.059Z,5.86
2023-02-20T07:47:36.086Z,5.99
2023-02-20T07:48:38.000Z,5.89
2023-02-20T07:49:39.865Z,5.78
2023-02-20T07:50:41.702Z,5.85
2023-02-20T07:51:43.872Z,6.11
2023-02-20T07:52:46.180Z,6.10
2023-02-20T07:53:53.169Z,5.89
2023-02-20T07:54:55.078Z,6.02
2023-02-20T07:55:56.954Z,6.57
2023-02-20T07:56:59.229Z,6.40
2023-02-20T07:58:01.098Z,6.31
2023-02-20T07:59:03.006Z,6.56
2023-02-20T08:00:05.387Z,6.79
2023-02-20T08:01:14.631Z,6.51
2023-02-20T08:02:16.848Z,6.81
2023-02-20T08:03:18.724Z,6.78
2023-02-20T08:04:20.562Z,6.98
2023-02-20T08:05:22.745Z,7.05
2023-02-20T08:06:24.703Z,7.01
2023-02-20T08:07:26.859Z,6.92
2023-02-20T08:08:28.989Z,6.98
2023-02-20T08:09:31.298Z,6.68
2023-02-20T08:10:33.638Z,6.49
2023-02-20T08:11:36.681Z,6.46
2023-02-20T08:12:39.310Z,6.66
2023-02-20T08:13:44.143Z,6.64
2023-02-20T08:14:46.043Z,6.84
2023-02-20T08:15:48.215Z,6.92
2023-02-20T08:16:50.166Z,6.97
2023-02-20T08:17:52.505Z,7.11
2023-02-20T08:18:54.531Z,7.15
2023-02-20T08:19:56.435Z,6.96
2023-02-20T08:20:58.324Z,6.75
2023-02-20T08:22:00.199Z,6.77
2023-02-20T08:23:05.354Z,6.77
2023-02-20T08:24:07.871Z,6.66
2023-02-20T08:25:09.976Z,6.59
2023-02-20T08:26:12.749Z,6.60
2023-02-20T08:27:14.819Z,6.74
2023-02-20T08:28:17.061Z,6.56
2023-02-20T08:29:19.024Z,6.70
2023-02-20T08:30:24.855Z,6.54
2023-02-20T08:31:32.561Z,6.57
2023-02-20T08:32:35.061Z,6.84
2023-02-20T08:33:37.419Z,6.81
2023-02-20T08:34:39.334Z,7.01
2023-02-20T08:35:41.621Z,6.90
2023-02-20T08:36:43.562Z,6.86
2023-02-20T08:37:46.015Z,7.02
2023-02-20T08:38:48.348Z,7.02
2023-02-20T08:39:50.322Z,7.33
2023-02-20T08:40:52.424Z,7.45
2023-02-20T08:41:54.281Z,7.74
2023-02-20T08:42:56.276Z,7.56
2023-02-20T08:43:58.551Z,7.59
2023-02-20T08:45:01.410Z,7.65
2023-02-20T08:46:04.782Z,7.74
2023-02-20T08:47:06.705Z,7.66
2023-02-20T08:48:09.215Z,7.71
2023-02-20T08:49:11.411Z,7.57
2023-02-20T08:50:13.469Z,7.77
2023-02-20T08:51:20.076Z,7.98
2023-02-20T08:52:21.958Z,8.08
2023-02-20T08:53:23.843Z,8.21
2023-02-20T08:54:26.031Z,8.43
2023-02-20T08:55:28.114Z,8.57
2023-02-20T08:56:30.178Z,8.82
2023-02-20T08:57:32.114Z,9.02
2023-02-20T08:58:34.036Z,8.92
2023-02-20T08:59:37.381Z,9.04
2023-02-20T09:00:39.694Z,9.02
2023-02-20T09:01:45.456Z,9.32
2023-02-20T09:02:48.381Z,9.70
2023-02-20T09:03:51.497Z,9.73
2023-02-20T09:04:53.725Z,9.93
2023-02-20T09:05:55.697Z,10.10
2023-02-20T09:06:57.631Z,10.12
2023-02-20T09:07:59.512Z,10.29
2023-02-20T09:09:01.874Z,10.54
2023-02-20T09:10:04.964Z,10.48
2023-02-20T09:11:09.997Z,9.79
2023-02-20T09:12:12.337Z,9.64
2023-02-20T09:13:14.422Z,10.30
2023-02-20T09:14:16.340Z,10.72
2023-02-20T09:15:18.582Z,11.16
2023-02-20T09:16:22.711Z,11.31
2023-02-20T09:17:24.598Z,11.13
2023-02-20T09:18:26.561Z,11.18
2023-02-20T09:19:28.657Z,10.76
2023-02-20T09:20:30.947Z,10.67
2023-02-20T09:21:32.838Z,10.65
2023-02-20T09:22:34.738Z,10.38
2023-02-20T09:23:36.857Z,10.37
2023-02-20T09:24:38.758Z,10.37
2023-02-20T09:25:41.021Z,9.96
2023-02-20T09:26:43.126Z,9.92
2023-02-20T09:27:45.025Z,10.03
2023-02-20T09:28:46.931Z,9.94
2023-02-20T09:29:48.865Z,9.56
2023-02-20T09:30:54.792Z,9.71
2023-02-20T09:31:57.226Z,9.69
2023-02-20T09:32:59.305Z,9.71
2023-02-20T09:34:01.314Z,9.61
2023-02-20T09:35:03.382Z,9.64
2023-02-20T09:36:06.310Z,10.14
2023-02-20T09:37:08.735Z,10.30
2023-02-20T09:38:10.682Z,10.17
2023-02-20T09:39:12.641Z,10.19
2023-02-20T09:40:15.286Z,10.19
2023-02-20T09:41:45.828Z,10.03
2023-02-20T09:43:15.584Z,9.87
2023-02-20T09:44:26.433Z,10.27
2023-02-20T09:45:33.356Z,10.32
2023-02-20T09:46:37.569Z,9.75
2023-02-20T09:47:57.806Z,9.94
2023-02-20T09:49:12.102Z,10.04
2023-02-20T09:50:22.384Z,10.28
2023-02-20T09:51:28.928Z,10.09
2023-02-20T09:52:39.962Z,10.12
2023-02-20T09:53:51.024Z,10.15
2023-02-20T09:55:03.600Z,10.00
2023-02-20T09:56:13.600Z,10.22
2023-02-20T09:57:21.301Z,10.54
2023-02-20T09:58:28.967Z,10.89
2023-02-20T09:59:40.516Z,11.12
2023-02-20T10:00:46.079Z,10.91
2023-02-20T10:02:18.132Z,11.14
2023-02-20T10:03:35.249Z,10.96
2023-02-20T10:04:49.554Z,11.08
2023-02-20T10:05:57.664Z,11.53
2023-02-20T10:07:35.845Z,11.72
2023-02-20T10:08:37.735Z,12.02
2023-02-20T10:09:39.658Z,12.17
2023-02-20T10:10:41.725Z,12.09
2023-02-20T10:11:46.715Z,12.29
2023-02-20T10:13:21.808Z,11.98
2023-02-20T10:14:47.187Z,11.68
2023-02-20T10:16:16.339Z,11.85
2023-02-20T10:17:53.230Z,11.00
2023-02-20T10:19:23.815Z,11.40
2023-02-20T10:20:31.482Z,11.51
2023-02-20T10:21:49.417Z,11.31
2023-02-20T10:23:22.224Z,11.33
2023-02-20T10:25:17.844Z,11.37
2023-02-20T10:26:26.059Z,11.22
2023-02-20T10:27:41.204Z,11.17
2023-02-20T10:28:43.116Z,10.83
2023-02-20T10:29:46.789Z,10.44
2023-02-20T10:30:54.414Z,10.57
2023-02-20T10:32:41.429Z,10.46
2023-02-20T10:33:52.699Z,10.40
2023-02-20T10:35:02.880Z,10.07
2023-02-20T10:36:16.053Z,9.83
2023-02-20T10:37:21.664Z,9.91
2023-02-20T10:38:29.551Z,10.09
2023-02-20T10:39:33.239Z,10.06
2023-02-20T10:40:44.036Z,9.99
2023-02-20T10:41:56.733Z,10.24
2023-02-20T10:43:03.961Z,10.27
2023-02-20T10:44:11.177Z,10.34
2023-02-20T10:45:33.266Z,10.53
2023-02-20T10:46:57.626Z,10.60
2023-02-20T10:48:08.867Z,10.85
2023-02-20T10:49:18.115Z,10.94
2023-02-20T10:50:34.888Z,11.07
2023-02-20T10:51:46.177Z,11.25
2023-02-20T10:53:09.931Z,11.26
2023-02-20T10:54:25.906Z,11.21
2023-02-20T10:55:35.626Z,10.65
2023-02-20T10:57:12.991Z,10.70
2023-02-20T10:58:32.694Z,10.25
2023-02-20T10:59:44.986Z,10.59
2023-02-20T11:00:54.143Z,10.58
2023-02-20T11:01:58.458Z,10.57
2023-02-20T11:03:07.938Z,10.53
2023-02-20T11:04:15.288Z,10.29
2023-02-20T11:05:22.581Z,9.88
2023-02-20T11:06:32.637Z,10.11
2023-02-20T11:07:34.894Z,10.35
2023-02-20T11:08:36.924Z,10.15
2023-02-20T11:09:40.523Z,10.29
2023-02-20T11:10:42.433Z,10.33
2023-02-20T11:11:47.220Z,10.23
2023-02-20T11:13:00.392Z,10.35
2023-02-20T11:14:11.819Z,10.46
2023-02-20T11:15:21.501Z,10.57
2023-02-20T11:16:49.269Z,10.24
2023-02-20T11:17:56.762Z,10.14
2023-02-20T11:19:32.828Z,10.44
2023-02-20T11:20:43.655Z,10.50
2023-02-20T11:21:48.400Z,10.42
2023-02-20T11:22:50.341Z,10.24
2023-02-20T11:23:52.581Z,10.27
2023-02-20T11:24:54.928Z,10.10
2023-02-20T11:26:21.706Z,10.28
2023-02-20T11:27:25.943Z,10.46
2023-02-20T11:28:27.868Z,10.30
2023-02-20T11:29:36.067Z,10.46
2023-02-20T11:30:44.346Z,10.56
2023-02-20T11:31:47.978Z,10.68
2023-02-20T11:32:50.584Z,10.38
2023-02-20T11:33:55.240Z,10.57
2023-02-20T11:35:12.612Z,10.64
2023-02-20T11:36:23.014Z,10.59
2023-02-20T11:37:24.903Z,10.59
2023-02-20T11:38:30.477Z,10.94
2023-02-20T11:39:34.287Z,10.85
2023-02-20T11:40:36.465Z,10.97
2023-02-20T11:41:39.769Z,10.94
2023-02-20T11:42:41.738Z,10.93
2023-02-20T11:44:00.192Z,11.16
2023-02-20T11:45:16.023Z,11.24
2023-02-20T11:46:23.795Z,11.40
2023-02-20T11:47:28.275Z,11.60
2023-02-20T11:48:30.408Z,11.69
2023-02-20T11:49:32.333Z,11.75
2023-02-20T11:50:44.792Z,12.58
2023-02-20T11:51:49.350Z,13.57
2023-02-20T11:53:02.572Z,13.85
2023-02-20T11:54:20.917Z,13.85
2023-02-20T11:55:27.525Z,14.37
2023-02-20T11:56:29.629Z,14.57
2023-02-20T11:57:31.929Z,14.04
2023-02-20T11:58:34.472Z,13.70
2023-02-20T11:59:38.185Z,13.77
2023-02-20T12:00:49.241Z,13.75
2023-02-20T12:02:00.507Z,13.87
2023-02-20T12:03:09.057Z,14.04
2023-02-20T12:04:23.038Z,14.11
2023-02-20T12:06:02.142Z,14.15
2023-02-20T12:07:28.483Z,14.34
2023-02-20T12:08:50.409Z,14.38
2023-02-20T12:09:57.529Z,14.46
2023-02-20T12:11:12.633Z,15.24
2023-02-20T12:12:18.433Z,15.24
2023-02-20T12:13:20.584Z,15.28
2023-02-20T12:14:22.540Z,15.36
2023-02-20T12:15:27.560Z,15.06
2023-02-20T12:16:44.475Z,14.80
2023-02-20T12:18:10.922Z,15.17
2023-02-20T12:19:12.803Z,15.44
2023-02-20T12:20:37.437Z,15.50
2023-02-20T12:22:12.690Z,15.37
2023-02-20T12:23:14.791Z,15.73
2023-02-20T12:24:22.647Z,15.49
2023-02-20T12:25:57.186Z,15.43
2023-02-20T12:27:05.333Z,15.55
2023-02-20T12:28:33.445Z,15.69
2023-02-20T12:29:51.407Z,15.45
2023-02-20T12:31:31.572Z,15.32
2023-02-20T12:33:01.023Z,15.69
2023-02-20T12:34:25.256Z,15.31
2023-02-20T12:35:33.104Z,15.52
2023-02-20T12:36:41.523Z,14.98
2023-02-20T12:38:21.185Z,14.79
2023-02-20T12:39:47.507Z,14.75
2023-02-20T12:41:08.521Z,14.94
2023-02-20T12:43:08.908Z,14.89
2023-02-20T12:44:50.095Z,14.81
2023-02-20T12:46:21.622Z,15.09
2023-02-20T12:47:29.469Z,15.16
2023-02-20T12:48:59.359Z,15.42
2023-02-20T12:50:13.664Z,15.62
2023-02-20T12:51:52.635Z,15.77
2023-02-20T12:53:19.410Z,15.41
2023-02-20T12:55:00.369Z,15.09
2023-02-20T12:56:21.860Z,15.11
2023-02-20T12:57:49.809Z,14.76
2023-02-20T12:59:01.961Z,14.59
2023-02-20T13:00:15.923Z,14.33
2023-02-20T13:01:34.171Z,14.35
2023-02-20T13:02:47.242Z,14.45
2023-02-20T13:04:00.988Z,14.49
2023-02-20T13:05:06.594Z,14.33
2023-02-20T13:06:10.169Z,13.87
2023-02-20T13:07:21.256Z,13.67
2023-02-20T13:08:54.760Z,13.63
2023-02-20T13:10:14.222Z,13.78
2023-02-20T13:11:23.972Z,13.75
2023-02-20T13:12:25.984Z,13.65
2023-02-20T13:13:40.754Z,13.73
2023-02-20T13:15:17.168Z,13.76
2023-02-20T13:16:39.227Z,13.79
2023-02-20T13:17:53.962Z,13.69
2023-02-20T13:19:05.937Z,13.75
2023-02-20T13:20:16.545Z,13.69
2023-02-20T13:21:30.645Z,13.47
2023-02-20T13:22:32.614Z,13.47
2023-02-20T13:23:36.990Z,13.32
2023-02-20T13:24:40.269Z,13.23
2023-02-20T13:25:52.727Z,13.37
2023-02-20T13:26:56.858Z,13.20
2023-02-20T13:28:27.806Z,13.17
2023-02-20T13:29:31.922Z,12.94
2023-02-20T13:30:34.457Z,12.92
2023-02-20T13:31:36.605Z,12.74
2023-02-20T13:32:38.642Z,12.80
2023-02-20T13:33:43.463Z,12.89
2023-02-20T13:34:45.442Z,12.79
2023-02-20T13:35:53.423Z,12.91
2023-02-20T13:36:55.342Z,12.95
2023-02-20T13:38:10.848Z,13.02
2023-02-20T13:39:19.058Z,12.96
2023-02-20T13:40:26.967Z,13.00
2023-02-20T13:41:55.287Z,13.14
2023-02-20T13:43:12.459Z,13.17
2023-02-20T13:44:38.677Z,13.17
2023-02-20T13:45:44.703Z,13.09
2023-02-20T13:47:04.350Z,13.11
2023-02-20T13:48:19.640Z,12.96
2023-02-20T13:49:49.407Z,13.07
2023-02-20T13:51:25.219Z,12.97
2023-02-20T13:52:38.858Z,13.02
2023-02-20T13:53:51.675Z,13.02
2023-02-20T13:54:53.608Z,13.04
2023-02-20T13:55:55.567Z,13.01
2023-02-20T13:57:04.826Z,13.12
2023-02-20T13:58:13.499Z,13.06
2023-02-20T13:59:18.531Z,13.06
2023-02-20T14:00:46.143Z,13.00
2023-02-20T14:01:55.285Z,13.12
2023-02-20T14:02:57.159Z,13.24
2023-02-20T14:04:07.267Z,13.15
2023-02-20T14:05:21.144Z,13.02
2023-02-20T14:06:23.211Z,13.12
2023-02-20T14:07:33.069Z,13.12
2023-02-20T14:08:36.835Z,13.19
2023-02-20T14:09:38.775Z,13.01
2023-02-20T14:10:41.748Z,13.06
2023-02-20T14:11:43.727Z,12.97
2023-02-20T14:12:55.275Z,12.98
2023-02-20T14:13:59.598Z,12.95
2023-02-20T14:15:05.503Z,12.92
2023-02-20T14:16:33.518Z,12.84
2023-02-20T14:17:40.718Z,12.72
2023-02-20T14:18:43.025Z,12.74
2023-02-20T14:19:57.439Z,12.80
2023-02-20T14:21:17.090Z,12.79
2023-02-20T14:22:33.489Z,12.82
2023-02-20T14:23:36.313Z,12.78
2023-02-20T14:24:38.461Z,12.66
2023-02-20T14:25:49.236Z,12.67
2023-02-20T14:26:57.372Z,12.65
2023-02-20T14:28:08.764Z,12.56
2023-02-20T14:29:32.883Z,12.56
2023-02-20T14:30:35.252Z,12.49
2023-02-20T14:31:38.320Z,12.49
2023-02-20T14:32:46.430Z,12.57
2023-02-20T14:34:02.810Z,12.44
2023-02-20T14:35:26.315Z,12.48
2023-02-20T14:37:00.657Z,12.62
2023-02-20T14:38:18.074Z,12.61
2023-02-20T14:39:50.072Z,12.62
2023-02-20T14:40:52.475Z,12.47
2023-02-20T14:41:58.089Z,12.39
2023-02-20T14:43:05.032Z,12.37
2023-02-20T14:44:18.436Z,12.36
2023-02-20T14:45:25.615Z,12.34
2023-02-20T14:46:29.915Z,12.16
2023-02-20T14:47:32.585Z,12.26
2023-02-20T14:48:40.999Z,12.28
2023-02-20T14:49:44.611Z,12.45
2023-02-20T14:50:46.497Z,12.37
2023-02-20T14:51:48.446Z,12.29